createdAt,value
2022-11-05T00:01:40.298Z,93.00
2022-11-05T00:04:31.111Z,93.00
2022-11-05T00:07:42.443Z,93.00
2022-11-05T00:10:28.113Z,93.10
2022-11-05T00:13:19.313Z,93.00
2022-11-05T00:16:09.039Z,93.10
2022-11-05T00:18:38.530Z,93.10
2022-11-05T00:21:28.260Z,93.10
2022-11-05T00:24:20.459Z,93.10
2022-11-05T00:26:51.326Z,93.20
2022-11-05T00:29:20.832Z,93.20
2022-11-05T00:31:50.405Z,93.20
2022-11-05T00:34:19.899Z,93.20
2022-11-05T00:36:49.369Z,93.20
2022-11-05T00:39:19.140Z,93.10
2022-11-05T00:42:08.213Z,93.20
2022-11-05T00:44:57.750Z,93.20
2022-11-05T00:47:46.931Z,93.30
2022-11-05T00:50:16.840Z,93.60
2022-11-05T00:53:06.099Z,93.30
2022-11-05T00:55:43.695Z,93.20
2022-11-05T00:58:19.549Z,93.20
2022-11-05T01:00:56.401Z,93.20
2022-11-05T01:03:41.916Z,93.20
2022-11-05T01:06:16.904Z,93.10
2022-11-05T01:08:50.172Z,93.10
2022-11-05T01:11:41.875Z,93.00
2022-11-05T01:14:14.253Z,93.00
2022-11-05T01:16:45.170Z,93.00
2022-11-05T01:19:16.592Z,93.00
2022-11-05T01:21:46.542Z,93.00
2022-11-05T01:24:16.366Z,93.00
2022-11-05T01:26:46.294Z,92.90
2022-11-05T01:29:19.372Z,92.80
2022-11-05T01:31:49.855Z,92.80
2022-11-05T01:34:19.693Z,92.70
2022-11-05T01:36:49.753Z,92.70
2022-11-05T01:39:20.762Z,92.60
2022-11-05T01:41:50.630Z,92.50
2022-11-05T01:44:59.404Z,92.50
2022-11-05T01:47:44.810Z,92.40
2022-11-05T01:50:32.304Z,92.40
2022-11-05T01:53:25.293Z,92.30
2022-11-05T01:56:08.860Z,92.30
2022-11-05T01:58:50.408Z,92.30
2022-11-05T02:01:20.811Z,92.20
2022-11-05T02:03:54.224Z,92.10
2022-11-05T02:06:24.811Z,92.40
2022-11-05T02:09:10.964Z,92.00
2022-11-05T02:11:40.911Z,92.00
2022-11-05T02:14:21.144Z,92.00
2022-11-05T02:17:30.501Z,91.70
2022-11-05T02:20:35.164Z,91.70
2022-11-05T02:23:39.753Z,91.60
2022-11-05T02:26:48.461Z,91.70
2022-11-05T02:29:57.178Z,91.60
2022-11-05T02:32:50.734Z,91.40
2022-11-05T02:35:50.988Z,91.30
2022-11-05T02:38:57.230Z,91.10
2022-11-05T02:41:51.570Z,90.80
2022-11-05T02:44:49.005Z,90.60
2022-11-05T02:47:46.015Z,90.20
2022-11-05T02:50:54.657Z,90.20
2022-11-05T02:53:49.838Z,89.70
2022-11-05T02:56:34.124Z,89.20
2022-11-05T02:59:04.244Z,88.70
2022-11-05T03:01:34.242Z,88.50
2022-11-05T03:04:08.022Z,87.70
2022-11-05T03:07:09.596Z,87.40
2022-11-05T03:10:13.041Z,87.00
2022-11-05T03:13:09.590Z,86.60
2022-11-05T03:15:54.603Z,86.40
2022-11-05T03:18:49.461Z,86.10
2022-11-05T03:21:26.903Z,85.80
2022-11-05T03:24:12.497Z,85.60
2022-11-05T03:27:21.563Z,85.50
2022-11-05T03:29:56.616Z,84.80
2022-11-05T03:32:28.250Z,84.50
2022-11-05T03:35:07.429Z,84.40
2022-11-05T03:37:42.812Z,84.50
2022-11-05T03:40:17.061Z,84.00
2022-11-05T03:42:51.407Z,83.70
2022-11-05T03:45:28.263Z,83.40
2022-11-05T03:48:02.593Z,82.70
2022-11-05T03:50:55.546Z,82.60
2022-11-05T03:53:30.193Z,82.20
2022-11-05T03:56:10.626Z,82.30
2022-11-05T03:58:45.864Z,82.20
2022-11-05T04:01:16.576Z,81.90
2022-11-05T04:03:46.684Z,81.40
2022-11-05T04:06:37.263Z,81.00
2022-11-05T04:09:26.845Z,81.10
2022-11-05T04:12:16.364Z,80.80
2022-11-05T04:14:46.419Z,80.80
2022-11-05T04:17:16.412Z,80.50
2022-11-05T04:20:06.980Z,80.40
2022-11-05T04:22:57.565Z,80.00
2022-11-05T04:25:27.521Z,80.10
2022-11-05T04:28:02.302Z,79.60
2022-11-05T04:30:35.214Z,78.50
2022-11-05T04:33:09.510Z,78.20
2022-11-05T04:35:43.930Z,77.90
2022-11-05T04:38:16.761Z,77.60
2022-11-05T04:40:47.673Z,77.40
2022-11-05T04:43:23.223Z,77.10
2022-11-05T04:45:53.377Z,77.30
2022-11-05T04:48:23.266Z,77.30
2022-11-05T04:50:53.195Z,77.10
2022-11-05T04:53:23.025Z,76.80
2022-11-05T04:55:52.927Z,76.70
2022-11-05T04:58:23.528Z,76.60
2022-11-05T05:00:53.884Z,76.30
2022-11-05T05:03:23.763Z,75.70
2022-11-05T05:05:54.227Z,75.60
2022-11-05T05:08:29.971Z,75.60
2022-11-05T05:11:05.472Z,75.80
2022-11-05T05:13:38.331Z,75.70
2022-11-05T05:16:10.533Z,75.80
2022-11-05T05:18:45.903Z,75.60
2022-11-05T05:21:36.769Z,75.20
2022-11-05T05:24:17.275Z,75.60
2022-11-05T05:26:52.668Z,75.40
2022-11-05T05:29:22.657Z,74.80
2022-11-05T05:31:52.524Z,74.40
2022-11-05T05:34:22.994Z,74.50
2022-11-05T05:36:52.819Z,75.00
2022-11-05T05:39:22.853Z,74.40
2022-11-05T05:41:52.988Z,74.10
2022-11-05T05:44:24.012Z,74.10
2022-11-05T05:46:55.548Z,72.90
2022-11-05T05:49:25.460Z,70.70
2022-11-05T05:51:55.324Z,70.80
2022-11-05T05:54:30.753Z,71.10
2022-11-05T05:57:02.168Z,71.20
2022-11-05T05:59:32.175Z,71.10
2022-11-05T06:02:02.325Z,71.40
2022-11-05T06:04:32.320Z,71.30
2022-11-05T06:07:02.476Z,71.20
2022-11-05T06:09:33.456Z,69.20
2022-11-05T06:12:03.007Z,69.70
2022-11-05T06:14:32.566Z,69.40
2022-11-05T06:17:02.114Z,70.00
2022-11-05T06:19:31.632Z,70.00
2022-11-05T06:22:01.282Z,70.20
2022-11-05T06:24:30.865Z,69.20
2022-11-05T06:27:00.447Z,68.50
2022-11-05T06:29:30.075Z,68.30
2022-11-05T06:31:59.999Z,68.50
2022-11-05T06:34:29.586Z,67.70
2022-11-05T06:36:59.134Z,68.10
2022-11-05T06:39:29.085Z,68.40
2022-11-05T06:44:48.685Z,68.50
2022-11-05T06:47:18.533Z,68.70
2022-11-05T06:49:49.389Z,68.90
2022-11-05T06:52:19.634Z,69.20
2022-11-05T06:54:49.208Z,69.30
2022-11-05T06:57:18.828Z,69.30
2022-11-05T06:59:48.355Z,69.20
2022-11-05T07:02:19.562Z,69.60
2022-11-05T07:04:49.144Z,69.50
2022-11-05T07:07:19.225Z,69.40
2022-11-05T07:09:49.064Z,69.70
2022-11-05T07:12:18.563Z,69.90
2022-11-05T07:14:48.059Z,69.60
2022-11-05T07:17:20.510Z,69.70
2022-11-05T07:19:50.034Z,69.40
2022-11-05T07:22:19.605Z,69.40
2022-11-05T07:24:51.213Z,68.30
2022-11-05T07:27:20.772Z,68.40
2022-11-05T07:29:50.355Z,68.30
2022-11-05T07:32:20.504Z,68.10
2022-11-05T07:34:55.423Z,67.60
2022-11-05T07:37:24.934Z,67.70
2022-11-05T07:39:54.431Z,67.90
2022-11-05T07:42:23.946Z,67.90
2022-11-05T07:44:53.502Z,67.90
2022-11-05T07:47:23.405Z,67.70
2022-11-05T07:49:53.088Z,68.40
2022-11-05T07:52:22.632Z,67.70
2022-11-05T07:54:52.197Z,67.90
2022-11-05T07:57:21.802Z,68.10
2022-11-05T07:59:54.812Z,68.20
2022-11-05T08:02:24.779Z,67.40
2022-11-05T08:04:54.551Z,67.20
2022-11-05T08:07:25.889Z,67.50
2022-11-05T08:09:56.488Z,67.70
2022-11-05T08:12:26.501Z,67.20
2022-11-05T08:14:56.027Z,67.00
2022-11-05T08:17:25.556Z,67.20
2022-11-05T08:19:55.157Z,67.30
2022-11-05T08:22:24.698Z,67.40
2022-11-05T08:24:54.271Z,67.50
2022-11-05T08:27:23.826Z,67.60
2022-11-05T08:29:53.578Z,67.40
2022-11-05T08:32:23.066Z,67.10
2022-11-05T08:34:52.591Z,67.10
2022-11-05T08:37:22.146Z,67.40
2022-11-05T08:39:52.785Z,67.40
2022-11-05T08:42:22.272Z,67.00
2022-11-05T08:44:51.839Z,67.10
2022-11-05T08:47:21.423Z,66.80
2022-11-05T08:49:51.289Z,66.70
2022-11-05T08:52:20.887Z,66.40
2022-11-05T08:54:50.803Z,66.40
2022-11-05T08:57:21.463Z,66.30
2022-11-05T08:59:51.010Z,66.40
2022-11-05T09:02:20.730Z,66.40
2022-11-05T09:04:50.352Z,66.50
2022-11-05T09:07:20.659Z,66.40
2022-11-05T09:09:50.254Z,66.40
2022-11-05T09:12:20.271Z,66.20
2022-11-05T09:14:49.883Z,66.30
2022-11-05T09:17:23.678Z,66.30
2022-11-05T09:19:53.660Z,66.60
2022-11-05T09:22:23.193Z,66.70
2022-11-05T09:24:52.804Z,66.80
2022-11-05T09:27:22.420Z,66.60
2022-11-05T09:29:51.987Z,66.60
2022-11-05T09:32:22.707Z,66.60
2022-11-05T09:34:52.344Z,66.50
2022-11-05T09:37:22.043Z,66.50
2022-11-05T09:39:51.582Z,66.60
2022-11-05T09:42:23.797Z,66.80
2022-11-05T09:45:07.319Z,67.00
2022-11-05T09:47:43.318Z,67.20
2022-11-05T09:50:20.894Z,67.40
2022-11-05T09:52:50.540Z,67.50
2022-11-05T09:55:43.427Z,67.50
2022-11-05T09:58:41.557Z,67.70
2022-11-05T10:01:22.371Z,67.70
2022-11-05T10:03:57.734Z,67.70
2022-11-05T10:06:30.007Z,67.80
2022-11-05T10:09:33.081Z,68.00
2022-11-05T10:12:15.021Z,68.40
2022-11-05T10:15:02.030Z,68.60
2022-11-05T10:17:38.897Z,68.70
2022-11-05T10:20:36.068Z,69.00
2022-11-05T10:23:20.622Z,69.50
2022-11-05T10:26:07.436Z,69.90
2022-11-05T10:28:38.496Z,70.20
2022-11-05T10:31:13.963Z,70.50
2022-11-05T10:34:03.596Z,71.00
2022-11-05T10:36:36.539Z,71.40
2022-11-05T10:39:15.503Z,71.90
2022-11-05T10:42:24.235Z,72.10
2022-11-05T10:45:22.145Z,72.40
2022-11-05T10:48:23.495Z,73.00
2022-11-05T10:50:53.499Z,73.10
2022-11-05T10:53:29.654Z,73.10
2022-11-05T10:56:00.333Z,73.30
2022-11-05T10:58:33.359Z,73.50
2022-11-05T11:01:12.327Z,73.70
2022-11-05T11:04:08.966Z,74.10
2022-11-05T11:06:40.873Z,74.40
2022-11-05T11:09:23.688Z,74.80
2022-11-05T11:12:22.587Z,75.20
2022-11-05T11:15:24.038Z,75.80
2022-11-05T11:17:53.675Z,76.30
2022-11-05T11:20:30.801Z,76.50
2022-11-05T11:23:15.795Z,76.50
2022-11-05T11:25:55.608Z,76.60
2022-11-05T11:28:31.300Z,77.00
2022-11-05T11:31:24.214Z,77.70
2022-11-05T11:34:01.831Z,77.90
2022-11-05T11:36:48.062Z,78.50
2022-11-05T11:39:22.474Z,79.60
2022-11-05T11:42:02.582Z,78.90
2022-11-05T11:44:39.640Z,79.10
2022-11-05T11:47:16.334Z,79.50
2022-11-05T11:49:58.143Z,79.90
2022-11-05T11:52:37.062Z,80.30
2022-11-05T11:55:26.960Z,80.50
2022-11-05T11:58:08.708Z,81.30
2022-11-05T12:00:44.846Z,81.20
2022-11-05T12:03:40.268Z,81.30
2022-11-05T12:06:38.183Z,81.70
2022-11-05T12:09:26.230Z,82.20
2022-11-05T12:12:15.834Z,82.30
2022-11-05T12:15:19.290Z,82.40
2022-11-05T12:18:02.707Z,82.80
2022-11-05T12:21:11.371Z,83.20
2022-11-05T12:24:20.346Z,83.30
2022-11-05T12:27:29.288Z,83.50
2022-11-05T12:30:15.852Z,83.70
2022-11-05T12:33:11.119Z,83.80
2022-11-05T12:36:07.117Z,83.90
2022-11-05T12:39:13.327Z,84.20
2022-11-05T12:42:13.801Z,84.50
2022-11-05T12:45:11.589Z,84.80
2022-11-05T12:48:00.228Z,85.00
2022-11-05T12:50:51.936Z,86.20
2022-11-05T12:53:46.331Z,85.60
2022-11-05T12:56:32.280Z,85.60
2022-11-05T12:59:41.007Z,85.50
2022-11-05T13:02:25.444Z,85.80
2022-11-05T13:05:15.134Z,85.90
2022-11-05T13:08:09.111Z,85.90
2022-11-05T13:10:57.358Z,86.20
2022-11-05T13:13:40.012Z,86.30
2022-11-05T13:16:45.721Z,86.40
2022-11-05T13:19:35.521Z,86.40
2022-11-05T13:22:38.972Z,86.50
2022-11-05T13:25:32.167Z,86.50
2022-11-05T13:28:26.526Z,86.80
2022-11-05T13:31:00.573Z,86.90
2022-11-05T13:33:41.380Z,87.00
2022-11-05T13:36:37.499Z,87.00
2022-11-05T13:39:37.047Z,87.00
2022-11-05T13:42:45.720Z,87.30
2022-11-05T13:45:54.519Z,87.40
2022-11-05T13:48:47.330Z,87.90
2022-11-05T13:51:52.455Z,88.00
2022-11-05T13:54:58.459Z,88.00
2022-11-05T13:57:57.817Z,88.00
2022-11-05T14:00:30.445Z,88.10
2022-11-05T14:03:07.810Z,88.20
2022-11-05T14:05:41.389Z,88.20
2022-11-05T14:08:26.859Z,88.40
2022-11-05T14:11:09.383Z,88.50
2022-11-05T14:13:45.582Z,88.70
2022-11-05T14:16:27.709Z,88.80
2022-11-05T14:19:35.006Z,88.80
2022-11-05T14:22:43.817Z,89.00
2022-11-05T14:25:52.537Z,89.30
2022-11-05T14:28:44.002Z,89.20
2022-11-05T14:31:54.566Z,89.20
2022-11-05T14:34:43.394Z,89.20
2022-11-05T14:37:38.692Z,89.30
2022-11-05T14:40:39.194Z,89.20
2022-11-05T14:43:22.584Z,89.30
2022-11-05T14:46:05.398Z,89.50
2022-11-05T14:48:47.953Z,89.60
2022-11-05T14:51:47.491Z,89.50
2022-11-05T14:54:36.304Z,89.60
2022-11-05T14:57:06.633Z,89.60
2022-11-05T15:00:00.254Z,89.60
2022-11-05T15:02:37.953Z,89.60
2022-11-05T15:05:39.265Z,89.60
2022-11-05T15:08:38.219Z,89.70
2022-11-05T15:11:49.956Z,89.80
2022-11-05T15:14:38.162Z,89.80
2022-11-05T15:17:41.531Z,89.90
2022-11-05T15:20:17.360Z,90.00
2022-11-05T15:22:51.739Z,90.00
2022-11-05T15:25:33.906Z,90.10
2022-11-05T15:28:12.877Z,90.00
2022-11-05T15:31:03.077Z,90.10
2022-11-05T15:33:34.847Z,90.10
2022-11-05T15:36:31.484Z,90.10
2022-11-05T15:39:27.936Z,90.10
2022-11-05T15:41:52.290Z,90.20
2022-11-05T15:44:42.680Z,90.20
2022-11-05T15:47:24.148Z,90.20
2022-11-05T15:49:59.816Z,90.20
2022-11-05T15:52:45.367Z,90.20
2022-11-05T15:55:27.876Z,90.30
2022-11-05T15:58:02.631Z,90.30
2022-11-05T16:00:37.831Z,90.30
2022-11-05T16:03:20.247Z,90.30
2022-11-05T16:05:51.251Z,90.40
2022-11-05T16:08:27.005Z,90.30
2022-11-05T16:11:04.514Z,90.40
2022-11-05T16:13:40.147Z,90.50
2022-11-05T16:16:35.971Z,90.50
2022-11-05T16:19:44.757Z,90.60
2022-11-05T16:22:14.378Z,90.50
2022-11-05T16:24:44.908Z,90.60
2022-11-05T16:27:26.058Z,90.60
2022-11-05T16:30:01.881Z,90.70
2022-11-05T16:32:34.705Z,90.50
2022-11-05T16:35:06.895Z,90.70
2022-11-05T16:37:50.704Z,90.70
2022-11-05T16:40:25.721Z,90.70
2022-11-05T16:42:56.507Z,90.90
2022-11-05T16:45:27.473Z,90.90
2022-11-05T16:47:58.070Z,90.90
2022-11-05T16:50:32.470Z,90.90
2022-11-05T16:53:02.027Z,90.90
2022-11-05T16:55:36.565Z,90.90
2022-11-05T16:58:06.771Z,91.00
2022-11-05T17:00:36.449Z,91.00
2022-11-05T17:03:06.051Z,91.00
2022-11-05T17:05:35.615Z,91.00
2022-11-05T17:08:05.977Z,91.10
2022-11-05T17:10:37.608Z,91.00
2022-11-05T17:13:07.435Z,91.10
2022-11-05T17:15:37.174Z,91.10
2022-11-05T17:18:12.783Z,91.00
2022-11-05T17:20:52.196Z,91.10
2022-11-05T17:23:25.472Z,91.10
2022-11-05T17:26:01.992Z,91.10
2022-11-05T17:28:33.335Z,91.10
2022-11-05T17:31:04.717Z,91.10
2022-11-05T17:33:34.603Z,91.10
2022-11-05T17:36:10.007Z,91.10
2022-11-05T17:38:40.038Z,91.10
2022-11-05T17:41:14.972Z,91.20
2022-11-05T17:43:45.253Z,91.20
2022-11-05T17:46:18.111Z,91.30
2022-11-05T17:48:48.147Z,91.30
2022-11-05T17:51:20.213Z,91.30
2022-11-05T17:53:53.327Z,91.20
2022-11-05T17:56:33.919Z,91.30
2022-11-05T17:59:05.548Z,91.40
2022-11-05T18:01:37.670Z,91.30
2022-11-05T18:04:09.388Z,91.30
2022-11-05T18:06:41.177Z,91.40
2022-11-05T18:09:12.407Z,91.40
2022-11-05T18:11:43.679Z,91.30
2022-11-05T18:14:13.976Z,91.40
2022-11-05T18:16:44.316Z,91.50
2022-11-05T18:19:14.176Z,91.50
2022-11-05T18:21:44.103Z,91.50
2022-11-05T18:24:14.064Z,91.50
2022-11-05T18:26:45.063Z,91.60
2022-11-05T18:29:14.906Z,91.60
2022-11-05T18:31:44.799Z,91.60
2022-11-05T18:34:14.988Z,91.70
2022-11-05T18:36:48.901Z,91.60
2022-11-05T18:39:22.413Z,91.60
2022-11-05T18:41:52.353Z,91.70
2022-11-05T18:44:24.935Z,91.70
2022-11-05T18:46:58.492Z,91.70
2022-11-05T18:49:29.402Z,91.80
2022-11-05T18:51:59.295Z,91.80
2022-11-05T18:54:29.296Z,91.80
2022-11-05T18:57:00.513Z,91.80
2022-11-05T18:59:37.694Z,91.90
2022-11-05T19:02:09.894Z,91.90
2022-11-05T19:04:50.538Z,91.90
2022-11-05T19:07:31.175Z,91.90
2022-11-05T19:10:01.079Z,91.90
2022-11-05T19:12:31.004Z,92.00
2022-11-05T19:15:02.575Z,92.00
2022-11-05T19:17:35.057Z,92.00
2022-11-05T19:20:06.403Z,92.00
2022-11-05T19:22:36.381Z,92.00
2022-11-05T19:25:06.970Z,92.00
2022-11-05T19:27:39.179Z,92.00
2022-11-05T19:30:09.836Z,92.00
2022-11-05T19:32:39.884Z,92.00
2022-11-05T19:35:10.223Z,92.10
2022-11-05T19:37:40.037Z,92.10
2022-11-05T19:40:11.194Z,92.10
2022-11-05T19:42:42.236Z,92.10
2022-11-05T19:45:38.305Z,92.10
2022-11-05T19:48:02.663Z,92.20
2022-11-05T19:50:32.589Z,92.20
2022-11-05T19:53:02.993Z,92.20
2022-11-05T19:55:32.828Z,92.20
2022-11-05T19:58:02.759Z,92.20
2022-11-05T20:00:32.655Z,92.30
2022-11-05T20:03:03.207Z,92.30
2022-11-05T20:05:34.149Z,92.30
2022-11-05T20:08:04.429Z,92.30
2022-11-05T20:10:34.336Z,92.40
2022-11-05T20:13:04.250Z,92.30
2022-11-05T20:15:37.203Z,92.30
2022-11-05T20:18:11.054Z,92.30
2022-11-05T20:20:41.657Z,92.30
2022-11-05T20:23:14.465Z,92.30
2022-11-05T20:25:44.365Z,92.40
2022-11-05T20:28:14.528Z,92.40
2022-11-05T20:30:44.565Z,92.40
2022-11-05T20:33:14.478Z,92.40
2022-11-05T20:35:45.001Z,92.50
2022-11-05T20:38:17.904Z,92.40
2022-11-05T20:40:50.744Z,92.50
2022-11-05T20:43:23.707Z,92.50
2022-11-05T20:45:56.003Z,92.60
2022-11-05T20:48:25.951Z,92.60
2022-11-05T20:50:55.790Z,92.60
2022-11-05T20:53:25.779Z,92.50
2022-11-05T20:55:55.656Z,92.60
2022-11-05T20:58:25.567Z,92.60
2022-11-05T21:00:57.990Z,92.60
2022-11-05T21:03:28.895Z,92.50
2022-11-05T21:06:02.979Z,92.60
2022-11-05T21:08:33.416Z,92.60
2022-11-05T21:11:03.464Z,92.60
2022-11-05T21:13:33.531Z,92.70
2022-11-05T21:16:04.083Z,92.70
2022-11-05T21:18:35.810Z,92.60
2022-11-05T21:21:12.668Z,92.70
2022-11-05T21:23:43.443Z,92.70
2022-11-05T21:26:15.510Z,92.70
2022-11-05T21:28:45.609Z,92.70
2022-11-05T21:31:15.567Z,93.00
2022-11-05T21:33:45.484Z,92.80
2022-11-05T21:36:15.991Z,92.80
2022-11-05T21:38:45.930Z,92.80
2022-11-05T21:41:19.090Z,92.80
2022-11-05T21:43:48.949Z,92.90
2022-11-05T21:46:22.431Z,93.00
2022-11-05T21:48:52.499Z,92.90
2022-11-05T21:51:41.957Z,92.90
2022-11-05T21:54:32.762Z,92.90
2022-11-05T21:57:25.102Z,92.90
2022-11-05T21:59:58.061Z,93.00
2022-11-05T22:02:30.305Z,93.00
2022-11-05T22:05:01.720Z,93.10
2022-11-05T22:07:35.967Z,93.00
2022-11-05T22:10:10.741Z,93.00
2022-11-05T22:12:44.410Z,93.00
2022-11-05T22:15:14.051Z,93.10
2022-11-05T22:17:46.998Z,93.10
2022-11-05T22:20:17.678Z,93.10
2022-11-05T22:22:48.003Z,93.10
2022-11-05T22:25:18.468Z,93.10
2022-11-05T22:27:51.059Z,93.10
2022-11-05T22:30:20.646Z,93.10
2022-11-05T22:32:50.173Z,93.10
2022-11-05T22:35:19.806Z,93.20
2022-11-05T22:37:49.408Z,93.10
2022-11-05T22:40:23.692Z,93.20
2022-11-05T22:42:53.689Z,93.30
2022-11-05T22:45:23.241Z,93.30
2022-11-05T22:47:52.861Z,93.30
2022-11-05T22:50:22.967Z,93.30
2022-11-05T22:52:52.989Z,93.30
2022-11-05T22:55:22.632Z,93.40
2022-11-05T22:57:52.129Z,93.30
2022-11-05T23:00:24.841Z,93.40
2022-11-05T23:02:54.541Z,93.30
2022-11-05T23:05:24.226Z,93.30
2022-11-05T23:08:14.197Z,93.30
2022-11-05T23:11:03.843Z,93.30
2022-11-05T23:13:33.486Z,93.40
2022-11-05T23:16:22.721Z,93.40
2022-11-05T23:19:11.847Z,93.40
2022-11-05T23:22:01.020Z,93.40
2022-11-05T23:24:31.589Z,93.40
2022-11-05T23:27:01.138Z,93.40
2022-11-05T23:29:32.311Z,93.40
2022-11-05T23:32:21.577Z,93.40
2022-11-05T23:34:51.234Z,93.50
2022-11-05T23:37:41.715Z,93.50
2022-11-05T23:40:16.660Z,93.50
2022-11-05T23:43:06.450Z,93.50
2022-11-05T23:45:56.436Z,93.60
2022-11-05T23:48:36.326Z,93.60
2022-11-05T23:51:13.961Z,93.60
2022-11-05T23:53:43.931Z,93.60
2022-11-05T23:56:15.985Z,93.70
2022-11-05T23:58:45.640Z,93.70
